sensor_id;sensor_type;location;lat;lon;timestamp;P1;durP1;ratioP1;P2;durP2;ratioP2
545;SDS011;259;53.304;9.816;2023-05-10T00:01:25;2.87;;;2.67;;
545;SDS011;259;53.304;9.816;2023-05-10T00:03:50;2.77;;;2.57;;
545;SDS011;259;53.304;9.816;2023-05-10T00:06:16;2.67;;;2.20;;
545;SDS011;259;53.304;9.816;2023-05-10T00:08:42;2.30;;;2.20;;
545;SDS011;259;53.304;9.816;2023-05-10T00:11:07;2.10;;;2.00;;
545;SDS011;259;53.304;9.816;2023-05-10T00:13:33;3.30;;;2.20;;
545;SDS011;259;53.304;9.816;2023-05-10T00:15:59;1.73;;;1.63;;
545;SDS011;259;53.304;9.816;2023-05-10T00:18:24;2.30;;;2.20;;
545;SDS011;259;53.304;9.816;2023-05-10T00:20:50;2.10;;;2.00;;
545;SDS011;259;53.304;9.816;2023-05-10T00:23:16;1.90;;;1.80;;
545;SDS011;259;53.304;9.816;2023-05-10T00:25:42;2.23;;;2.13;;
545;SDS011;259;53.304;9.816;2023-05-10T00:28:07;2.17;;;2.07;;
545;SDS011;259;53.304;9.816;2023-05-10T00:30:33;1.90;;;1.80;;
545;SDS011;259;53.304;9.816;2023-05-10T00:32:59;2.40;;;2.23;;
545;SDS011;259;53.304;9.816;2023-05-10T00:35:25;2.30;;;2.20;;
545;SDS011;259;53.304;9.816;2023-05-10T00:37:51;2.27;;;2.17;;
545;SDS011;259;53.304;9.816;2023-05-10T00:40:16;2.60;;;2.50;;
545;SDS011;259;53.304;9.816;2023-05-10T00:42:42;2.70;;;2.50;;
545;SDS011;259;53.304;9.816;2023-05-10T00:45:08;2.27;;;2.17;;
545;SDS011;259;53.304;9.816;2023-05-10T00:47:34;1.97;;;1.87;;
545;SDS011;259;53.304;9.816;2023-05-10T00:50:00;2.50;;;2.40;;
545;SDS011;259;53.304;9.816;2023-05-10T00:52:29;2.40;;;2.30;;
545;SDS011;259;53.304;9.816;2023-05-10T00:54:55;2.40;;;2.30;;
545;SDS011;259;53.304;9.816;2023-05-10T00:57:21;2.30;;;2.20;;
545;SDS011;259;53.304;9.816;2023-05-10T00:59:47;2.40;;;2.30;;
545;SDS011;259;53.304;9.816;2023-05-10T01:02:13;2.33;;;2.23;;
545;SDS011;259;53.304;9.816;2023-05-10T01:04:39;2.47;;;2.27;;
545;SDS011;259;53.304;9.816;2023-05-10T01:07:05;2.10;;;2.00;;
545;SDS011;259;53.304;9.816;2023-05-10T01:09:31;1.97;;;1.80;;
545;SDS011;259;53.304;9.816;2023-05-10T01:11:58;2.67;;;2.47;;
545;SDS011;259;53.304;9.816;2023-05-10T01:14:24;2.80;;;2.60;;
545;SDS011;259;53.304;9.816;2023-05-10T01:16:51;2.10;;;2.00;;
545;SDS011;259;53.304;9.816;2023-05-10T01:19:27;2.20;;;2.10;;
545;SDS011;259;53.304;9.816;2023-05-10T01:33:59;1.93;;;1.83;;
545;SDS011;259;53.304;9.816;2023-05-10T01:36:49;2.47;;;2.37;;
545;SDS011;259;53.304;9.816;2023-05-10T01:39:21;2.50;;;2.30;;
545;SDS011;259;53.304;9.816;2023-05-10T01:47:35;2.63;;;2.50;;
545;SDS011;259;53.304;9.816;2023-05-10T01:50:08;1.90;;;1.80;;
545;SDS011;259;53.304;9.816;2023-05-10T01:52:41;2.23;;;2.13;;
545;SDS011;259;53.304;9.816;2023-05-10T01:55:13;2.13;;;2.03;;
545;SDS011;259;53.304;9.816;2023-05-10T01:57:42;1.97;;;1.87;;
545;SDS011;259;53.304;9.816;2023-05-10T02:00:11;2.50;;;2.40;;
545;SDS011;259;53.304;9.816;2023-05-10T02:02:42;2.37;;;2.27;;
545;SDS011;259;53.304;9.816;2023-05-10T02:05:11;2.80;;;2.60;;
545;SDS011;259;53.304;9.816;2023-05-10T02:07:40;2.90;;;2.70;;
545;SDS011;259;53.304;9.816;2023-05-10T02:10:07;2.97;;;2.77;;
545;SDS011;259;53.304;9.816;2023-05-10T02:12:35;2.60;;;2.50;;
545;SDS011;259;53.304;9.816;2023-05-10T02:15:04;2.43;;;2.33;;
545;SDS011;259;53.304;9.816;2023-05-10T02:17:32;2.30;;;2.20;;
545;SDS011;259;53.304;9.816;2023-05-10T02:19:59;2.47;;;2.37;;
545;SDS011;259;53.304;9.816;2023-05-10T02:22:28;2.50;;;2.30;;
545;SDS011;259;53.304;9.816;2023-05-10T02:24:58;2.70;;;2.50;;
545;SDS011;259;53.304;9.816;2023-05-10T02:27:25;2.23;;;2.10;;
545;SDS011;259;53.304;9.816;2023-05-10T02:29:53;2.93;;;2.73;;
545;SDS011;259;53.304;9.816;2023-05-10T02:32:20;2.50;;;2.40;;
545;SDS011;259;53.304;9.816;2023-05-10T02:34:47;1.90;;;1.80;;
545;SDS011;259;53.304;9.816;2023-05-10T02:37:17;2.40;;;2.30;;
545;SDS011;259;53.304;9.816;2023-05-10T02:39:48;2.73;;;2.60;;
545;SDS011;259;53.304;9.816;2023-05-10T02:42:16;1.93;;;1.83;;
545;SDS011;259;53.304;9.816;2023-05-10T02:44:48;2.50;;;2.40;;
545;SDS011;259;53.304;9.816;2023-05-10T02:47:16;2.53;;;2.43;;
545;SDS011;259;53.304;9.816;2023-05-10T02:49:43;2.30;;;2.20;;
545;SDS011;259;53.304;9.816;2023-05-10T02:52:09;3.00;;;2.80;;
545;SDS011;259;53.304;9.816;2023-05-10T02:54:45;2.33;;;2.23;;
545;SDS011;259;53.304;9.816;2023-05-10T02:57:20;2.33;;;2.23;;
545;SDS011;259;53.304;9.816;2023-05-10T02:59:52;2.30;;;2.20;;
545;SDS011;259;53.304;9.816;2023-05-10T03:02:17;2.60;;;2.50;;
545;SDS011;259;53.304;9.816;2023-05-10T03:04:43;2.10;;;2.00;;
545;SDS011;259;53.304;9.816;2023-05-10T03:07:09;2.40;;;2.30;;
545;SDS011;259;53.304;9.816;2023-05-10T03:09:35;3.07;;;2.87;;
545;SDS011;259;53.304;9.816;2023-05-10T03:12:07;2.87;;;2.67;;
545;SDS011;259;53.304;9.816;2023-05-10T03:17:49;2.50;;;2.30;;
545;SDS011;259;53.304;9.816;2023-05-10T03:20:24;2.67;;;2.57;;
545;SDS011;259;53.304;9.816;2023-05-10T03:23:00;2.73;;;2.53;;
545;SDS011;259;53.304;9.816;2023-05-10T03:25:34;2.50;;;2.40;;
545;SDS011;259;53.304;9.816;2023-05-10T03:28:01;2.70;;;2.50;;
545;SDS011;259;53.304;9.816;2023-05-10T03:30:28;2.50;;;2.33;;
545;SDS011;259;53.304;9.816;2023-05-10T03:32:55;2.60;;;2.50;;
545;SDS011;259;53.304;9.816;2023-05-10T03:35:21;2.73;;;2.53;;
545;SDS011;259;53.304;9.816;2023-05-10T03:37:48;2.43;;;2.33;;
545;SDS011;259;53.304;9.816;2023-05-10T03:40:14;2.23;;;2.13;;
545;SDS011;259;53.304;9.816;2023-05-10T03:42:40;2.67;;;2.47;;
545;SDS011;259;53.304;9.816;2023-05-10T03:45:06;2.23;;;2.13;;
545;SDS011;259;53.304;9.816;2023-05-10T03:47:32;2.50;;;2.30;;
545;SDS011;259;53.304;9.816;2023-05-10T03:49:58;2.60;;;2.40;;
545;SDS011;259;53.304;9.816;2023-05-10T03:52:24;2.70;;;2.60;;
545;SDS011;259;53.304;9.816;2023-05-10T03:54:50;2.43;;;2.33;;
545;SDS011;259;53.304;9.816;2023-05-10T03:57:15;2.60;;;2.50;;
545;SDS011;259;53.304;9.816;2023-05-10T03:59:41;2.40;;;2.30;;
545;SDS011;259;53.304;9.816;2023-05-10T04:02:07;2.67;;;2.53;;
545;SDS011;259;53.304;9.816;2023-05-10T04:04:32;2.90;;;2.70;;
545;SDS011;259;53.304;9.816;2023-05-10T04:06:58;2.77;;;2.67;;
545;SDS011;259;53.304;9.816;2023-05-10T04:09:24;2.43;;;2.33;;
545;SDS011;259;53.304;9.816;2023-05-10T04:11:50;2.03;;;1.93;;
545;SDS011;259;53.304;9.816;2023-05-10T04:14:16;2.43;;;2.33;;
545;SDS011;259;53.304;9.816;2023-05-10T04:16:41;2.60;;;2.50;;
545;SDS011;259;53.304;9.816;2023-05-10T04:19:07;2.90;;;2.70;;
545;SDS011;259;53.304;9.816;2023-05-10T04:21:33;2.20;;;2.10;;
545;SDS011;259;53.304;9.816;2023-05-10T04:23:58;2.63;;;2.53;;
545;SDS011;259;53.304;9.816;2023-05-10T04:26:24;2.93;;;2.73;;
545;SDS011;259;53.304;9.816;2023-05-10T04:28:50;2.80;;;2.70;;
545;SDS011;259;53.304;9.816;2023-05-10T04:31:16;2.97;;;2.70;;
545;SDS011;259;53.304;9.816;2023-05-10T04:33:42;3.47;;;3.00;;
545;SDS011;259;53.304;9.816;2023-05-10T04:36:07;2.73;;;2.53;;
545;SDS011;259;53.304;9.816;2023-05-10T04:38:33;3.00;;;2.80;;
545;SDS011;259;53.304;9.816;2023-05-10T04:41:08;2.97;;;2.77;;
545;SDS011;259;53.304;9.816;2023-05-10T04:43:35;2.63;;;2.50;;
545;SDS011;259;53.304;9.816;2023-05-10T04:46:02;2.70;;;2.50;;
545;SDS011;259;53.304;9.816;2023-05-10T04:48:27;2.67;;;2.57;;
545;SDS011;259;53.304;9.816;2023-05-10T04:50:53;2.47;;;2.37;;
545;SDS011;259;53.304;9.816;2023-05-10T04:53:19;2.60;;;2.43;;
545;SDS011;259;53.304;9.816;2023-05-10T04:55:45;3.10;;;2.90;;
545;SDS011;259;53.304;9.816;2023-05-10T04:58:11;2.57;;;2.47;;
545;SDS011;259;53.304;9.816;2023-05-10T05:00:37;3.10;;;2.90;;
545;SDS011;259;53.304;9.816;2023-05-10T05:03:03;2.50;;;2.33;;
545;SDS011;259;53.304;9.816;2023-05-10T05:05:28;3.40;;;3.20;;
545;SDS011;259;53.304;9.816;2023-05-10T05:07:54;2.67;;;2.57;;
545;SDS011;259;53.304;9.816;2023-05-10T05:10:20;2.87;;;2.77;;
545;SDS011;259;53.304;9.816;2023-05-10T05:12:45;2.70;;;2.60;;
545;SDS011;259;53.304;9.816;2023-05-10T05:15:11;2.23;;;2.13;;
545;SDS011;259;53.304;9.816;2023-05-10T05:17:37;2.80;;;2.60;;
545;SDS011;259;53.304;9.816;2023-05-10T05:20:02;2.57;;;2.47;;
545;SDS011;259;53.304;9.816;2023-05-10T05:22:29;2.90;;;2.70;;
545;SDS011;259;53.304;9.816;2023-05-10T05:24:55;2.60;;;2.50;;
545;SDS011;259;53.304;9.816;2023-05-10T05:27:21;2.80;;;2.70;;
545;SDS011;259;53.304;9.816;2023-05-10T05:29:49;2.60;;;2.50;;
545;SDS011;259;53.304;9.816;2023-05-10T05:32:16;2.57;;;2.40;;
545;SDS011;259;53.304;9.816;2023-05-10T05:34:43;2.60;;;2.43;;
545;SDS011;259;53.304;9.816;2023-05-10T05:37:17;2.57;;;2.47;;
545;SDS011;259;53.304;9.816;2023-05-10T05:39:44;2.37;;;2.27;;
545;SDS011;259;53.304;9.816;2023-05-10T05:42:11;2.77;;;2.67;;
545;SDS011;259;53.304;9.816;2023-05-10T05:44:38;2.70;;;2.50;;
545;SDS011;259;53.304;9.816;2023-05-10T05:47:04;2.77;;;2.57;;
545;SDS011;259;53.304;9.816;2023-05-10T05:49:30;2.57;;;2.37;;
545;SDS011;259;53.304;9.816;2023-05-10T05:52:00;3.80;;;3.50;;
545;SDS011;259;53.304;9.816;2023-05-10T05:54:26;3.43;;;3.23;;
545;SDS011;259;53.304;9.816;2023-05-10T05:56:56;5.27;;;4.87;;
545;SDS011;259;53.304;9.816;2023-05-10T05:59:23;19.97;;;16.47;;
545;SDS011;259;53.304;9.816;2023-05-10T06:01:49;11.67;;;9.00;;
545;SDS011;259;53.304;9.816;2023-05-10T06:04:15;8.90;;;6.97;;
545;SDS011;259;53.304;9.816;2023-05-10T06:06:41;7.83;;;6.00;;
545;SDS011;259;53.304;9.816;2023-05-10T06:09:07;9.90;;;5.50;;
545;SDS011;259;53.304;9.816;2023-05-10T06:11:33;9.17;;;8.30;;
545;SDS011;259;53.304;9.816;2023-05-10T06:13:59;15.67;;;8.57;;
545;SDS011;259;53.304;9.816;2023-05-10T06:16:26;7.37;;;6.00;;
545;SDS011;259;53.304;9.816;2023-05-10T06:18:52;11.13;;;6.77;;
545;SDS011;259;53.304;9.816;2023-05-10T06:21:18;7.43;;;6.10;;
545;SDS011;259;53.304;9.816;2023-05-10T06:23:44;8.50;;;4.90;;
545;SDS011;259;53.304;9.816;2023-05-10T06:26:10;8.53;;;5.73;;
545;SDS011;259;53.304;9.816;2023-05-10T06:28:35;10.77;;;5.60;;
545;SDS011;259;53.304;9.816;2023-05-10T06:31:04;10.50;;;5.37;;
545;SDS011;259;53.304;9.816;2023-05-10T06:33:30;5.73;;;5.20;;
545;SDS011;259;53.304;9.816;2023-05-10T06:35:56;6.57;;;4.50;;
545;SDS011;259;53.304;9.816;2023-05-10T06:38:22;7.23;;;5.50;;
545;SDS011;259;53.304;9.816;2023-05-10T06:40:48;6.50;;;5.20;;
545;SDS011;259;53.304;9.816;2023-05-10T06:43:14;6.97;;;4.80;;
545;SDS011;259;53.304;9.816;2023-05-10T06:45:39;6.57;;;5.00;;
545;SDS011;259;53.304;9.816;2023-05-10T06:48:05;5.73;;;4.33;;
545;SDS011;259;53.304;9.816;2023-05-10T06:50:32;5.80;;;5.30;;
545;SDS011;259;53.304;9.816;2023-05-10T06:52:58;5.60;;;5.20;;
545;SDS011;259;53.304;9.816;2023-05-10T06:55:24;4.90;;;4.60;;
545;SDS011;259;53.304;9.816;2023-05-10T06:57:50;5.20;;;4.80;;
545;SDS011;259;53.304;9.816;2023-05-10T07:00:16;5.17;;;4.80;;
545;SDS011;259;53.304;9.816;2023-05-10T07:02:43;4.97;;;4.57;;
545;SDS011;259;53.304;9.816;2023-05-10T07:05:09;5.70;;;4.67;;
545;SDS011;259;53.304;9.816;2023-05-10T07:07:35;5.43;;;4.93;;
545;SDS011;259;53.304;9.816;2023-05-10T07:10:01;6.20;;;5.60;;
545;SDS011;259;53.304;9.816;2023-05-10T07:12:27;9.90;;;4.73;;
545;SDS011;259;53.304;9.816;2023-05-10T07:14:53;9.73;;;5.50;;
545;SDS011;259;53.304;9.816;2023-05-10T07:17:18;8.50;;;5.37;;
545;SDS011;259;53.304;9.816;2023-05-10T07:19:44;6.63;;;5.20;;
545;SDS011;259;53.304;9.816;2023-05-10T07:22:10;7.83;;;4.93;;
545;SDS011;259;53.304;9.816;2023-05-10T07:24:36;14.23;;;5.43;;
545;SDS011;259;53.304;9.816;2023-05-10T07:27:03;12.70;;;6.60;;
545;SDS011;259;53.304;9.816;2023-05-10T07:29:29;6.80;;;5.20;;
545;SDS011;259;53.304;9.816;2023-05-10T07:31:55;8.70;;;5.80;;
545;SDS011;259;53.304;9.816;2023-05-10T07:34:21;11.83;;;5.40;;
545;SDS011;259;53.304;9.816;2023-05-10T07:36:46;9.47;;;5.47;;
545;SDS011;259;53.304;9.816;2023-05-10T07:39:12;12.10;;;6.10;;
545;SDS011;259;53.304;9.816;2023-05-10T07:41:38;16.07;;;5.13;;
545;SDS011;259;53.304;9.816;2023-05-10T07:44:04;19.73;;;5.53;;
545;SDS011;259;53.304;9.816;2023-05-10T07:46:31;14.30;;;6.00;;
545;SDS011;259;53.304;9.816;2023-05-10T07:48:56;9.80;;;4.90;;
545;SDS011;259;53.304;9.816;2023-05-10T07:51:22;7.43;;;5.37;;
545;SDS011;259;53.304;9.816;2023-05-10T07:53:48;9.60;;;6.07;;
545;SDS011;259;53.304;9.816;2023-05-10T07:56:24;24.33;;;6.53;;
545;SDS011;259;53.304;9.816;2023-05-10T07:58:54;14.13;;;6.57;;
545;SDS011;259;53.304;9.816;2023-05-10T08:01:21;19.33;;;6.40;;
545;SDS011;259;53.304;9.816;2023-05-10T08:03:47;12.43;;;6.10;;
545;SDS011;259;53.304;9.816;2023-05-10T08:06:17;14.00;;;5.70;;
545;SDS011;259;53.304;9.816;2023-05-10T08:08:44;6.47;;;5.30;;
545;SDS011;259;53.304;9.816;2023-05-10T08:11:14;10.87;;;5.67;;
545;SDS011;259;53.304;9.816;2023-05-10T08:13:41;9.43;;;5.20;;
545;SDS011;259;53.304;9.816;2023-05-10T08:16:07;12.17;;;6.10;;
545;SDS011;259;53.304;9.816;2023-05-10T08:18:32;13.07;;;6.03;;
545;SDS011;259;53.304;9.816;2023-05-10T08:20:58;19.80;;;6.70;;
545;SDS011;259;53.304;9.816;2023-05-10T08:23:24;12.57;;;6.97;;
545;SDS011;259;53.304;9.816;2023-05-10T08:25:49;8.20;;;5.10;;
545;SDS011;259;53.304;9.816;2023-05-10T08:28:15;16.30;;;6.47;;
545;SDS011;259;53.304;9.816;2023-05-10T08:30:41;7.00;;;5.83;;
545;SDS011;259;53.304;9.816;2023-05-10T08:33:07;8.07;;;5.67;;
545;SDS011;259;53.304;9.816;2023-05-10T08:35:32;13.17;;;5.83;;
545;SDS011;259;53.304;9.816;2023-05-10T08:37:59;19.10;;;6.07;;
545;SDS011;259;53.304;9.816;2023-05-10T08:40:26;9.97;;;5.60;;
545;SDS011;259;53.304;9.816;2023-05-10T08:42:56;7.57;;;5.50;;
545;SDS011;259;53.304;9.816;2023-05-10T08:45:32;17.63;;;6.50;;
545;SDS011;259;53.304;9.816;2023-05-10T08:48:02;17.10;;;6.63;;
545;SDS011;259;53.304;9.816;2023-05-10T08:50:31;11.33;;;6.23;;
545;SDS011;259;53.304;9.816;2023-05-10T08:53:00;22.50;;;6.90;;
545;SDS011;259;53.304;9.816;2023-05-10T08:55:34;24.87;;;8.17;;
545;SDS011;259;53.304;9.816;2023-05-10T08:58:03;11.83;;;5.57;;
545;SDS011;259;53.304;9.816;2023-05-10T09:00:29;20.47;;;8.60;;
545;SDS011;259;53.304;9.816;2023-05-10T09:02:57;11.67;;;6.33;;
545;SDS011;259;53.304;9.816;2023-05-10T09:05:24;18.27;;;6.17;;
545;SDS011;259;53.304;9.816;2023-05-10T09:07:50;14.07;;;5.87;;
545;SDS011;259;53.304;9.816;2023-05-10T09:10:16;24.63;;;7.50;;
545;SDS011;259;53.304;9.816;2023-05-10T09:12:42;8.73;;;5.63;;
545;SDS011;259;53.304;9.816;2023-05-10T09:15:10;15.97;;;5.80;;
545;SDS011;259;53.304;9.816;2023-05-10T09:17:36;13.73;;;6.30;;
545;SDS011;259;53.304;9.816;2023-05-10T09:20:03;13.77;;;5.27;;
545;SDS011;259;53.304;9.816;2023-05-10T09:22:30;9.87;;;5.70;;
545;SDS011;259;53.304;9.816;2023-05-10T09:25:03;11.27;;;5.53;;
545;SDS011;259;53.304;9.816;2023-05-10T09:27:33;9.23;;;6.17;;
545;SDS011;259;53.304;9.816;2023-05-10T09:30:00;14.33;;;5.90;;
545;SDS011;259;53.304;9.816;2023-05-10T09:35:24;8.80;;;5.20;;
545;SDS011;259;53.304;9.816;2023-05-10T09:37:56;15.17;;;6.47;;
545;SDS011;259;53.304;9.816;2023-05-10T09:40:26;10.67;;;5.50;;
545;SDS011;259;53.304;9.816;2023-05-10T09:42:57;12.40;;;5.67;;
545;SDS011;259;53.304;9.816;2023-05-10T09:45:24;8.40;;;4.47;;
545;SDS011;259;53.304;9.816;2023-05-10T09:47:59;11.37;;;4.87;;
545;SDS011;259;53.304;9.816;2023-05-10T09:50:27;6.43;;;5.27;;
545;SDS011;259;53.304;9.816;2023-05-10T09:52:57;7.77;;;4.43;;
545;SDS011;259;53.304;9.816;2023-05-10T09:55:25;14.43;;;5.20;;
545;SDS011;259;53.304;9.816;2023-05-10T09:58:03;7.47;;;5.27;;
545;SDS011;259;53.304;9.816;2023-05-10T10:00:35;8.23;;;5.03;;
545;SDS011;259;53.304;9.816;2023-05-10T10:03:03;9.90;;;5.87;;
545;SDS011;259;53.304;9.816;2023-05-10T10:08:00;8.93;;;4.90;;
545;SDS011;259;53.304;9.816;2023-05-10T10:10:29;7.70;;;5.63;;
545;SDS011;259;53.304;9.816;2023-05-10T10:12:57;9.47;;;4.90;;
545;SDS011;259;53.304;9.816;2023-05-10T10:15:23;8.80;;;5.13;;
545;SDS011;259;53.304;9.816;2023-05-10T10:17:50;9.80;;;5.30;;
545;SDS011;259;53.304;9.816;2023-05-10T10:20:18;5.13;;;4.73;;
545;SDS011;259;53.304;9.816;2023-05-10T10:22:45;10.40;;;5.17;;
545;SDS011;259;53.304;9.816;2023-05-10T10:25:13;11.00;;;5.30;;
545;SDS011;259;53.304;9.816;2023-05-10T10:30:25;9.83;;;5.60;;
545;SDS011;259;53.304;9.816;2023-05-10T10:36:03;9.77;;;5.30;;
545;SDS011;259;53.304;9.816;2023-05-10T10:38:36;8.60;;;4.50;;
545;SDS011;259;53.304;9.816;2023-05-10T10:41:36;10.73;;;5.57;;
545;SDS011;259;53.304;9.816;2023-05-10T10:52:26;16.23;;;5.67;;
545;SDS011;259;53.304;9.816;2023-05-10T11:05:47;11.63;;;6.47;;
545;SDS011;259;53.304;9.816;2023-05-10T11:08:15;14.10;;;6.90;;
545;SDS011;259;53.304;9.816;2023-05-10T11:13:26;10.37;;;7.07;;
545;SDS011;259;53.304;9.816;2023-05-10T11:15:53;11.33;;;5.90;;
545;SDS011;259;53.304;9.816;2023-05-10T11:18:20;9.50;;;6.30;;
545;SDS011;259;53.304;9.816;2023-05-10T11:20:50;13.50;;;6.67;;
545;SDS011;259;53.304;9.816;2023-05-10T11:23:21;11.40;;;6.77;;
545;SDS011;259;53.304;9.816;2023-05-10T11:25:47;6.90;;;6.20;;
545;SDS011;259;53.304;9.816;2023-05-10T11:28:16;7.00;;;6.30;;
545;SDS011;259;53.304;9.816;2023-05-10T11:30:44;6.90;;;6.30;;
545;SDS011;259;53.304;9.816;2023-05-10T11:33:14;7.97;;;7.27;;
545;SDS011;259;53.304;9.816;2023-05-10T11:35:44;13.20;;;7.50;;
545;SDS011;259;53.304;9.816;2023-05-10T11:38:11;16.60;;;7.50;;
545;SDS011;259;53.304;9.816;2023-05-10T11:40:38;13.23;;;6.43;;
545;SDS011;259;53.304;9.816;2023-05-10T11:43:05;7.37;;;6.10;;
545;SDS011;259;53.304;9.816;2023-05-10T11:45:34;10.00;;;6.30;;
545;SDS011;259;53.304;9.816;2023-05-10T11:48:01;8.17;;;6.03;;
545;SDS011;259;53.304;9.816;2023-05-10T11:50:28;11.03;;;6.07;;
545;SDS011;259;53.304;9.816;2023-05-10T11:52:54;10.37;;;6.17;;
545;SDS011;259;53.304;9.816;2023-05-10T11:55:21;6.83;;;5.90;;
545;SDS011;259;53.304;9.816;2023-05-10T11:57:52;11.40;;;5.60;;
545;SDS011;259;53.304;9.816;2023-05-10T12:00:25;6.40;;;5.90;;
545;SDS011;259;53.304;9.816;2023-05-10T12:02:51;6.30;;;5.20;;
545;SDS011;259;53.304;9.816;2023-05-10T12:05:17;6.37;;;5.80;;
545;SDS011;259;53.304;9.816;2023-05-10T12:07:42;9.87;;;6.13;;
545;SDS011;259;53.304;9.816;2023-05-10T12:10:12;6.80;;;5.43;;
545;SDS011;259;53.304;9.816;2023-05-10T12:12:45;5.30;;;4.90;;
545;SDS011;259;53.304;9.816;2023-05-10T12:15:23;7.97;;;4.60;;
545;SDS011;259;53.304;9.816;2023-05-10T12:17:50;7.33;;;4.80;;
545;SDS011;259;53.304;9.816;2023-05-10T12:22:47;7.70;;;5.13;;
545;SDS011;259;53.304;9.816;2023-05-10T12:25:17;7.03;;;4.73;;
545;SDS011;259;53.304;9.816;2023-05-10T12:27:54;4.90;;;4.10;;
545;SDS011;259;53.304;9.816;2023-05-10T12:30:25;5.47;;;4.63;;
545;SDS011;259;53.304;9.816;2023-05-10T12:32:52;4.97;;;4.50;;
545;SDS011;259;53.304;9.816;2023-05-10T12:35:20;5.60;;;5.03;;
545;SDS011;259;53.304;9.816;2023-05-10T12:37:47;7.10;;;5.30;;
545;SDS011;259;53.304;9.816;2023-05-10T12:40:13;8.57;;;5.63;;
545;SDS011;259;53.304;9.816;2023-05-10T12:42:39;9.30;;;5.60;;
545;SDS011;259;53.304;9.816;2023-05-10T12:45:05;9.93;;;4.53;;
545;SDS011;259;53.304;9.816;2023-05-10T12:47:32;7.17;;;4.37;;
545;SDS011;259;53.304;9.816;2023-05-10T12:49:59;6.70;;;4.93;;
545;SDS011;259;53.304;9.816;2023-05-10T12:52:26;5.03;;;4.53;;
545;SDS011;259;53.304;9.816;2023-05-10T12:54:53;6.10;;;4.73;;
545;SDS011;259;53.304;9.816;2023-05-10T12:57:19;7.80;;;4.40;;
545;SDS011;259;53.304;9.816;2023-05-10T12:59:45;7.03;;;5.20;;
545;SDS011;259;53.304;9.816;2023-05-10T13:02:11;7.17;;;4.83;;
545;SDS011;259;53.304;9.816;2023-05-10T13:04:37;8.47;;;5.73;;
545;SDS011;259;53.304;9.816;2023-05-10T13:07:05;7.73;;;5.63;;
545;SDS011;259;53.304;9.816;2023-05-10T13:09:31;11.00;;;4.93;;
545;SDS011;259;53.304;9.816;2023-05-10T13:11:57;11.47;;;4.90;;
545;SDS011;259;53.304;9.816;2023-05-10T13:14:23;11.67;;;5.50;;
545;SDS011;259;53.304;9.816;2023-05-10T13:16:49;13.10;;;5.50;;
545;SDS011;259;53.304;9.816;2023-05-10T13:19:15;9.67;;;5.70;;
545;SDS011;259;53.304;9.816;2023-05-10T13:21:41;5.80;;;4.70;;
545;SDS011;259;53.304;9.816;2023-05-10T13:24:09;6.30;;;4.20;;
545;SDS011;259;53.304;9.816;2023-05-10T13:26:36;9.70;;;5.00;;
545;SDS011;259;53.304;9.816;2023-05-10T13:29:02;6.40;;;5.03;;
545;SDS011;259;53.304;9.816;2023-05-10T13:31:28;5.23;;;4.67;;
545;SDS011;259;53.304;9.816;2023-05-10T13:33:54;5.47;;;5.07;;
545;SDS011;259;53.304;9.816;2023-05-10T13:36:20;5.13;;;4.63;;
545;SDS011;259;53.304;9.816;2023-05-10T13:38:46;11.03;;;5.87;;
545;SDS011;259;53.304;9.816;2023-05-10T13:41:11;6.57;;;6.00;;
545;SDS011;259;53.304;9.816;2023-05-10T13:43:37;5.13;;;4.83;;
545;SDS011;259;53.304;9.816;2023-05-10T13:46:03;5.80;;;5.30;;
545;SDS011;259;53.304;9.816;2023-05-10T13:48:28;5.30;;;4.90;;
545;SDS011;259;53.304;9.816;2023-05-10T13:50:54;4.93;;;4.57;;
545;SDS011;259;53.304;9.816;2023-05-10T13:53:20;5.37;;;4.97;;
545;SDS011;259;53.304;9.816;2023-05-10T13:55:46;5.80;;;5.30;;
545;SDS011;259;53.304;9.816;2023-05-10T13:58:12;4.70;;;4.40;;
545;SDS011;259;53.304;9.816;2023-05-10T14:00:37;4.90;;;4.07;;
545;SDS011;259;53.304;9.816;2023-05-10T14:03:03;5.07;;;4.70;;
545;SDS011;259;53.304;9.816;2023-05-10T14:05:30;3.93;;;3.63;;
545;SDS011;259;53.304;9.816;2023-05-10T14:07:55;4.07;;;3.80;;
545;SDS011;259;53.304;9.816;2023-05-10T14:10:22;3.93;;;3.73;;
545;SDS011;259;53.304;9.816;2023-05-10T14:12:47;4.20;;;3.90;;
545;SDS011;259;53.304;9.816;2023-05-10T14:15:14;4.20;;;3.80;;
545;SDS011;259;53.304;9.816;2023-05-10T14:17:39;5.47;;;3.67;;
545;SDS011;259;53.304;9.816;2023-05-10T14:20:05;4.50;;;4.10;;
545;SDS011;259;53.304;9.816;2023-05-10T14:22:32;3.70;;;3.40;;
545;SDS011;259;53.304;9.816;2023-05-10T14:24:58;4.57;;;3.67;;
545;SDS011;259;53.304;9.816;2023-05-10T14:27:24;2.80;;;2.63;;
545;SDS011;259;53.304;9.816;2023-05-10T14:29:50;3.00;;;2.80;;
545;SDS011;259;53.304;9.816;2023-05-10T14:32:15;4.67;;;3.13;;
545;SDS011;259;53.304;9.816;2023-05-10T14:34:41;7.37;;;3.27;;
545;SDS011;259;53.304;9.816;2023-05-10T14:37:07;4.70;;;3.37;;
545;SDS011;259;53.304;9.816;2023-05-10T14:39:35;3.67;;;3.40;;
545;SDS011;259;53.304;9.816;2023-05-10T14:42:01;5.20;;;4.07;;
545;SDS011;259;53.304;9.816;2023-05-10T14:44:27;3.47;;;3.17;;
545;SDS011;259;53.304;9.816;2023-05-10T14:46:53;7.97;;;3.30;;
545;SDS011;259;53.304;9.816;2023-05-10T14:49:18;4.00;;;3.60;;
545;SDS011;259;53.304;9.816;2023-05-10T14:51:47;8.63;;;3.43;;
545;SDS011;259;53.304;9.816;2023-05-10T14:54:13;9.70;;;4.03;;
545;SDS011;259;53.304;9.816;2023-05-10T14:56:39;5.37;;;3.23;;
545;SDS011;259;53.304;9.816;2023-05-10T14:59:06;6.47;;;3.80;;
545;SDS011;259;53.304;9.816;2023-05-10T15:01:32;6.23;;;3.00;;
545;SDS011;259;53.304;9.816;2023-05-10T15:04:02;4.00;;;3.30;;
545;SDS011;259;53.304;9.816;2023-05-10T15:06:32;3.63;;;3.07;;
545;SDS011;259;53.304;9.816;2023-05-10T15:09:00;4.57;;;3.20;;
545;SDS011;259;53.304;9.816;2023-05-10T15:11:28;3.70;;;2.90;;
545;SDS011;259;53.304;9.816;2023-05-10T15:13:54;4.67;;;3.13;;
545;SDS011;259;53.304;9.816;2023-05-10T15:16:20;5.83;;;3.77;;
545;SDS011;259;53.304;9.816;2023-05-10T15:18:46;3.67;;;3.47;;
545;SDS011;259;53.304;9.816;2023-05-10T15:21:11;6.30;;;3.70;;
545;SDS011;259;53.304;9.816;2023-05-10T15:23:37;4.93;;;3.70;;
545;SDS011;259;53.304;9.816;2023-05-10T15:26:03;7.80;;;3.63;;
545;SDS011;259;53.304;9.816;2023-05-10T15:28:29;4.10;;;3.30;;
545;SDS011;259;53.304;9.816;2023-05-10T15:30:54;3.83;;;3.53;;
545;SDS011;259;53.304;9.816;2023-05-10T15:33:21;5.67;;;3.43;;
545;SDS011;259;53.304;9.816;2023-05-10T15:35:47;4.37;;;3.60;;
545;SDS011;259;53.304;9.816;2023-05-10T15:38:13;3.53;;;3.20;;
545;SDS011;259;53.304;9.816;2023-05-10T15:40:39;6.70;;;3.80;;
545;SDS011;259;53.304;9.816;2023-05-10T15:43:05;8.20;;;3.63;;
545;SDS011;259;53.304;9.816;2023-05-10T15:45:31;9.57;;;3.13;;
545;SDS011;259;53.304;9.816;2023-05-10T15:47:57;3.47;;;3.13;;
545;SDS011;259;53.304;9.816;2023-05-10T15:50:24;5.17;;;2.60;;
545;SDS011;259;53.304;9.816;2023-05-10T15:52:49;4.17;;;3.20;;
545;SDS011;259;53.304;9.816;2023-05-10T15:55:15;3.47;;;2.97;;
545;SDS011;259;53.304;9.816;2023-05-10T15:57:42;3.60;;;3.30;;
545;SDS011;259;53.304;9.816;2023-05-10T16:00:09;3.77;;;3.10;;
545;SDS011;259;53.304;9.816;2023-05-10T16:02:36;2.80;;;2.60;;
545;SDS011;259;53.304;9.816;2023-05-10T16:05:02;5.97;;;2.90;;
545;SDS011;259;53.304;9.816;2023-05-10T16:07:28;4.00;;;2.67;;
545;SDS011;259;53.304;9.816;2023-05-10T16:09:54;2.60;;;2.47;;
545;SDS011;259;53.304;9.816;2023-05-10T16:12:20;2.57;;;2.20;;
545;SDS011;259;53.304;9.816;2023-05-10T16:14:47;3.40;;;2.67;;
545;SDS011;259;53.304;9.816;2023-05-10T16:17:13;2.87;;;2.67;;
545;SDS011;259;53.304;9.816;2023-05-10T16:19:41;3.27;;;2.77;;
545;SDS011;259;53.304;9.816;2023-05-10T16:22:07;5.37;;;2.50;;
545;SDS011;259;53.304;9.816;2023-05-10T16:24:32;2.37;;;2.17;;
545;SDS011;259;53.304;9.816;2023-05-10T16:26:58;3.10;;;2.30;;
545;SDS011;259;53.304;9.816;2023-05-10T16:29:24;3.20;;;2.90;;
545;SDS011;259;53.304;9.816;2023-05-10T16:31:50;3.07;;;2.70;;
545;SDS011;259;53.304;9.816;2023-05-10T16:34:15;3.20;;;2.37;;
545;SDS011;259;53.304;9.816;2023-05-10T16:36:41;2.53;;;2.33;;
545;SDS011;259;53.304;9.816;2023-05-10T16:39:07;2.10;;;2.00;;